»·PEaware :: SCX154 KPHX-KBUR

SCX154 :: KPHX-KBUR

FLIGHT INFORMATION

Flight Status: Arrived
Operator:
Sun Country Airlines
More flights by this operator :: More flights under this callsign
Pilot: Ben F. (13029)
Aircraft: BOEING 737-800
(B738)
More flights by this aircraft type
Origin: KPHX Phoenix Sky Harbor Intl
United States
Destination: KBUR Bob Hope-Burbank
United States
More flights between these airports :: More routes between these airports
Route: +ZEPER1 JKPOT EED JANNY5
File this flight plan on PilotEdge
Remarks: RMK / SIMBRIEF
Altitude:
(Current/Filed)
36,000ft
Speed:
(Current/Filed)
460kts
Departed: 28-Mar-20 06:29 PM
Arrived: 28-Mar-20 07:49 PM
Distance/Time
Traveled:
319nm/1:19
Distance/Time
To Go:
Arrived

Flight Plot

Page will automatically refresh every two minutes.

Flight plan parsing failed; only flown route is shown


Map Options




Map Legend


Flown Route
Filed Route
Departure Airport
Arrival Airport
Navaid (VOR, NDB)
Fix

Horizontal Profiles

Position Reports

Time Latitude Longitude Heading Altitude Ground
Speed
28-Mar-20 17:57 33.437547 -111.998785 270 1119ft 0kts
28-Mar-20 17:58 33.437547 -111.998785 270 1119ft 0kts
28-Mar-20 17:59 33.437547 -111.998785 270 1119ft 0kts
28-Mar-20 18:00 33.437547 -111.998785 270 1119ft 0kts
28-Mar-20 18:01 33.437547 -111.998785 270 1119ft 0kts
28-Mar-20 18:02 33.437547 -111.998785 270 1119ft 0kts
28-Mar-20 18:03 33.437547 -111.998785 270 1119ft 0kts
28-Mar-20 18:04 33.437547 -111.998785 270 1119ft 0kts
28-Mar-20 18:05 33.437547 -111.998785 270 1119ft 0kts
28-Mar-20 18:06 33.437547 -111.998785 270 1119ft 0kts
28-Mar-20 18:07 33.437547 -111.998785 270 1119ft 0kts
28-Mar-20 18:08 33.437547 -111.998785 270 1119ft 0kts
28-Mar-20 18:09 33.437547 -111.998785 270 1119ft 0kts
28-Mar-20 18:10 33.437547 -111.998785 270 1119ft 0kts
28-Mar-20 18:11 33.437547 -111.998785 270 1119ft 0kts
28-Mar-20 18:12 33.437547 -111.998785 270 1119ft 0kts
28-Mar-20 18:13 33.437547 -111.998785 270 1119ft 0kts
28-Mar-20 18:14 33.437547 -111.998785 270 1119ft 0kts
28-Mar-20 18:15 33.437547 -111.998785 270 1119ft 0kts
28-Mar-20 18:16 33.437547 -111.998785 270 1119ft 0kts
28-Mar-20 18:17 33.437547 -111.998785 270 1119ft 0kts
28-Mar-20 18:18 33.437547 -111.998785 270 1119ft 0kts
28-Mar-20 18:19 33.437547 -111.998785 270 1119ft 0kts
28-Mar-20 18:20 33.437546 -111.998576 270 1119ft 2kts
28-Mar-20 18:21 33.437219 -111.998043 349 1119ft 2kts
28-Mar-20 18:22 33.437097 -111.998033 359 1119ft 0kts
28-Mar-20 18:23 33.437097 -111.998033 359 1119ft 0kts
28-Mar-20 18:24 33.437097 -111.998033 359 1119ft 0kts
28-Mar-20 18:25 33.438592 -111.997888 20 1119ft 15kts
28-Mar-20 18:26 33.439314 -111.992380 26 1119ft 13kts
28-Mar-20 18:27 33.439922 -111.992305 0 1119ft 5kts
28-Mar-20 18:28 33.440828 -112.004289 269 1120ft 134kts
28-Mar-20 18:29 33.440953 -112.061460 270 3454ft 185kts
28-Mar-20 18:30 33.442434 -112.124712 275 5690ft 190kts
28-Mar-20 18:31 33.456823 -112.180877 316 7952ft 181kts
28-Mar-20 18:32 33.509825 -112.196257 359 9449ft 236kts
28-Mar-20 18:33 33.580967 -112.200414 355 11719ft 266kts
28-Mar-20 18:34 33.654563 -112.213562 345 14573ft 268kts
28-Mar-20 18:35 33.725994 -112.236746 344 17289ft 267kts
28-Mar-20 18:36 33.800004 -112.260631 344 18819ft 298kts
28-Mar-20 18:37 33.882834 -112.287396 343 20169ft 324kts
28-Mar-20 18:38 33.971209 -112.316001 342 21903ft 332kts
28-Mar-20 18:39 34.054548 -112.361238 320 23697ft 331kts
28-Mar-20 18:40 34.125960 -112.433095 318 25295ft 336kts
28-Mar-20 18:41 34.197596 -112.505183 317 26792ft 337kts
28-Mar-20 18:42 34.270058 -112.578298 316 27877ft 345kts
28-Mar-20 18:43 34.343361 -112.652390 314 29704ft 345kts
28-Mar-20 18:44 34.417059 -112.727215 313 31425ft 348kts
28-Mar-20 18:45 34.491537 -112.802876 311 32957ft 352kts
28-Mar-20 18:46 34.568066 -112.880908 310 33724ft 373kts
28-Mar-20 18:47 34.647058 -112.963506 305 35001ft 372kts
28-Mar-20 18:48 34.694199 -113.068775 280 36120ft 347kts
28-Mar-20 18:49 34.703712 -113.183252 273 36133ft 338kts
28-Mar-20 18:50 34.709772 -113.297217 273 36130ft 339kts
28-Mar-20 18:51 34.715782 -113.411300 273 36128ft 339kts
28-Mar-20 18:52 34.721684 -113.525414 273 36125ft 339kts
28-Mar-20 18:53 34.727494 -113.639799 273 36123ft 339kts
28-Mar-20 18:54 34.733112 -113.754536 273 36142ft 339kts
28-Mar-20 18:55 34.738683 -113.868409 273 36124ft 339kts
28-Mar-20 18:56 34.744174 -113.982885 273 36104ft 339kts
28-Mar-20 18:57 34.749556 -114.097301 273 36094ft 339kts
28-Mar-20 18:58 34.754827 -114.211608 273 36088ft 339kts
28-Mar-20 18:59 34.759985 -114.325787 273 36084ft 339kts
28-Mar-20 19:00 34.765040 -114.440041 273 36081ft 339kts
28-Mar-20 19:01 34.768005 -114.554633 271 36079ft 339kts
28-Mar-20 19:02 34.770507 -114.669076 271 36094ft 339kts
28-Mar-20 19:03 34.772917 -114.783481 271 36096ft 339kts
28-Mar-20 19:04 34.775302 -114.897828 271 36093ft 339kts
28-Mar-20 19:05 34.777513 -115.012549 271 36091ft 338kts
28-Mar-20 19:06 34.779629 -115.126136 271 36088ft 336kts
28-Mar-20 19:07 34.781713 -115.239453 271 36086ft 334kts
28-Mar-20 19:08 34.783617 -115.348647 271 36086ft 318kts
28-Mar-20 19:09 34.785424 -115.457607 270 36078ft 330kts
28-Mar-20 19:10 34.787213 -115.571245 270 36093ft 334kts
28-Mar-20 19:11 34.788823 -115.683527 270 36140ft 334kts
28-Mar-20 19:12 34.790263 -115.792390 270 36142ft 317kts
28-Mar-20 19:13 34.791973 -115.900829 270 36140ft 323kts
28-Mar-20 19:14 34.794066 -116.009633 270 36136ft 321kts
28-Mar-20 19:15 34.796076 -116.119813 271 34887ft 335kts
28-Mar-20 19:16 34.798022 -116.231867 270 31513ft 334kts
28-Mar-20 19:17 34.794526 -116.348494 268 28000ft 359kts
28-Mar-20 19:18 34.790599 -116.466173 268 25137ft 335kts
28-Mar-20 19:19 34.785642 -116.578476 264 23094ft 319kts
28-Mar-20 19:20 34.775571 -116.679716 264 22118ft 293kts
28-Mar-20 19:21 34.765851 -116.779505 264 21832ft 315kts
28-Mar-20 19:22 34.754877 -116.891022 263 21387ft 331kts
28-Mar-20 19:23 34.743665 -117.001950 263 20892ft 330kts
28-Mar-20 19:24 34.732423 -117.112601 263 20388ft 328kts
28-Mar-20 19:25 34.721159 -117.222457 263 19878ft 327kts
28-Mar-20 19:26 34.709809 -117.332162 262 19360ft 326kts
28-Mar-20 19:27 34.698392 -117.441523 262 19098ft 325kts
28-Mar-20 19:28 34.686637 -117.551022 262 18713ft 330kts
28-Mar-20 19:29 34.675041 -117.659958 262 17481ft 325kts
28-Mar-20 19:30 34.663442 -117.769145 262 16290ft 324kts
28-Mar-20 19:31 34.651831 -117.877713 262 15059ft 325kts
28-Mar-20 19:33 34.639758 -117.987993 262 12784ft 330kts
28-Mar-20 19:34 34.624263 -118.096892 255 11117ft 309kts
28-Mar-20 19:35 34.603312 -118.190396 255 10468ft 278kts
28-Mar-20 19:36 34.583259 -118.280425 254 9164ft 274kts
28-Mar-20 19:37 34.558971 -118.366159 236 8163ft 261kts
28-Mar-20 19:38 34.512829 -118.437746 231 7569ft 267kts
28-Mar-20 19:39 34.461205 -118.501741 214 7155ft 267kts
28-Mar-20 19:40 34.401394 -118.548181 213 6437ft 235kts
28-Mar-20 19:41 34.346310 -118.578869 193 5783ft 210kts
28-Mar-20 19:42 34.289858 -118.591712 192 5155ft 195kts
28-Mar-20 19:43 34.235827 -118.603598 186 4532ft 196kts
28-Mar-20 19:44 34.193048 -118.569985 122 3576ft 185kts
28-Mar-20 19:45 34.200880 -118.512631 52 3137ft 187kts
28-Mar-20 19:46 34.200267 -118.459487 100 2045ft 165kts
28-Mar-20 19:47 34.198279 -118.406534 92 1613ft 154kts
28-Mar-20 19:48 34.197760 -118.358974 91 788ft 82kts
28-Mar-20 19:49 34.197262 -118.352419 171 788ft 0kts
28-Mar-20 19:49 34.196844 -118.352395 179 788ft 0kts
28-Mar-20 19:51 34.196844 -118.352395 179 787ft 0kts
28-Mar-20 19:52 34.196844 -118.352395 179 787ft 0kts
28-Mar-20 19:52 34.196844 -118.352395 179 787ft 0kts

Navigation Log

Ident Type
Flight plan parsing failed, navigation log unavailable